Time;durP1;ratioP1;P1;durP2;ratioP2;P2;SDS_P1;SDS_P2;PMS_P1;PMS_P2;Temp;Humidity;BMP_temperature;BMP_pressure;BME280_temperature;BME280_humidity;BME280_pressure;Samples;Min_cycle;Max_cycle;Signal;HPM_P1;HPM_P2
2024/04/23 00:01:58;;;;;;;4.70;2.10;;;3.40;99.90;;;;;;5397857;26;19998;-76
2024/04/23 00:04:24;;;;;;;2.20;1.30;;;3.40;99.90;;;;;;5411905;26;20021;-76
2024/04/23 00:06:58;;;;;;;3.17;1.87;;;3.40;99.90;;;;;;5349476;26;22440;-75
2024/04/23 00:09:26;;;;;;;3.23;1.67;;;3.40;99.90;;;;;;5412536;26;20564;-75
2024/04/23 00:11:53;;;;;;;4.07;1.80;;;3.30;99.90;;;;;;5408191;26;20460;-75
2024/04/23 00:14:20;;;;;;;2.60;1.53;;;3.30;99.90;;;;;;5386840;26;22117;-75
2024/04/23 00:17:06;;;;;;;3.40;1.20;;;3.30;99.90;;;;;;5396175;26;20654;-76
2024/04/23 00:19:33;;;;;;;2.83;1.20;;;3.30;99.90;;;;;;5380601;26;20974;-76
2024/04/23 00:22:00;;;;;;;4.73;1.40;;;3.20;99.90;;;;;;5376489;26;21940;-75
2024/04/23 00:24:26;;;;;;;3.40;1.20;;;3.20;99.90;;;;;;5433836;26;20583;-75
2024/04/23 00:27:00;;;;;;;2.83;1.27;;;3.20;99.90;;;;;;5354506;26;23917;-74
2024/04/23 00:29:28;;;;;;;2.40;1.40;;;3.20;99.90;;;;;;5425633;26;20013;-76
2024/04/23 00:31:55;;;;;;;5.50;2.37;;;3.10;99.90;;;;;;5429210;26;20017;-75
2024/04/23 00:34:21;;;;;;;4.77;1.60;;;3.10;99.90;;;;;;5437484;26;22053;-75
2024/04/23 00:36:55;;;;;;;3.43;1.40;;;3.10;99.90;;;;;;5409712;26;22077;-76
2024/04/23 00:39:23;;;;;;;3.37;1.50;;;3.00;99.90;;;;;;5407679;26;20615;-74
2024/04/23 00:41:49;;;;;;;3.47;1.93;;;3.00;99.90;;;;;;5415737;26;20007;-75
2024/04/23 00:44:16;;;;;;;4.40;2.00;;;3.00;99.90;;;;;;5372280;26;20017;-75
2024/04/23 00:46:43;;;;;;;3.77;1.80;;;3.00;99.90;;;;;;5426960;26;20006;-75
2024/04/23 00:49:15;;;;;;;3.47;1.77;;;3.00;99.90;;;;;;5432699;26;20006;-75
2024/04/23 00:51:46;;;;;;;4.25;1.88;;;3.00;99.90;;;;;;5412428;26;20018;-74
2024/04/23 00:54:14;;;;;;;3.90;1.90;;;2.90;99.90;;;;;;5381499;26;20020;-75
2024/04/23 00:56:42;;;;;;;3.07;1.60;;;2.90;99.90;;;;;;5422694;26;20500;-75
2024/04/23 00:59:12;;;;;;;3.23;2.03;;;2.90;99.90;;;;;;5428830;26;20739;-75
2024/04/23 01:01:39;;;;;;;5.60;2.20;;;2.90;99.90;;;;;;5384908;26;20017;-75
2024/04/23 01:04:05;;;;;;;2.90;1.73;;;2.90;99.90;;;;;;5411578;26;20017;-76
2024/04/23 01:06:32;;;;;;;3.00;2.30;;;2.90;99.90;;;;;;5404810;26;20002;-74
2024/04/23 01:08:59;;;;;;;5.10;2.50;;;2.90;99.90;;;;;;5439037;25;20002;-74
2024/04/23 01:11:26;;;;;;;4.90;2.40;;;2.90;99.90;;;;;;5426072;26;20017;-75
2024/04/23 01:13:53;;;;;;;3.07;1.40;;;2.90;99.90;;;;;;5425996;26;20006;-75
2024/04/23 01:16:23;;;;;;;3.93;1.50;;;2.80;99.90;;;;;;5382799;26;20021;-76
2024/04/23 01:18:51;;;;;;;4.97;1.73;;;2.80;99.90;;;;;;5414014;26;20034;-75
2024/04/23 01:21:28;;;;;;;3.47;1.63;;;2.80;99.90;;;;;;5411766;26;20010;-76
2024/04/23 01:24:20;;;;;;;5.00;2.73;;;2.80;99.90;;;;;;5423440;26;20677;-75
2024/04/23 01:26:47;;;;;;;3.67;2.20;;;2.80;99.90;;;;;;5422434;26;20591;-75
2024/04/23 01:29:15;;;;;;;6.00;2.27;;;2.70;99.90;;;;;;5386054;26;20017;-75
2024/04/23 01:31:42;;;;;;;4.73;2.17;;;2.70;99.90;;;;;;5383279;26;20021;-75
2024/04/23 01:34:09;;;;;;;3.17;1.87;;;2.70;99.90;;;;;;5412482;26;19994;-75
2024/04/23 01:36:35;;;;;;;3.83;1.70;;;2.70;99.90;;;;;;5411165;26;21515;-75
2024/04/23 01:39:02;;;;;;;4.50;2.30;;;2.70;99.90;;;;;;5423739;26;20006;-74
2024/04/23 01:41:29;;;;;;;3.63;2.40;;;2.70;99.90;;;;;;5418491;26;20025;-75
2024/04/23 01:43:56;;;;;;;3.73;2.43;;;2.70;99.90;;;;;;5406619;26;20558;-74
2024/04/23 01:46:22;;;;;;;3.20;2.00;;;2.70;99.90;;;;;;5413223;26;20007;-74
2024/04/23 01:48:49;;;;;;;6.23;3.20;;;2.60;99.90;;;;;;5412550;26;20020;-74
2024/04/23 01:51:16;;;;;;;4.73;2.67;;;2.60;99.90;;;;;;5412644;26;20344;-75
2024/04/23 01:53:42;;;;;;;3.93;2.50;;;2.60;99.90;;;;;;5425814;26;20006;-75
2024/04/23 01:56:09;;;;;;;3.33;1.30;;;2.60;99.90;;;;;;5416246;26;20025;-75
2024/04/23 01:58:35;;;;;;;5.20;2.30;;;2.60;99.90;;;;;;5379697;26;21267;-76
2024/04/23 02:01:02;;;;;;;4.57;2.57;;;2.50;99.90;;;;;;5412517;26;20024;-75
2024/04/23 02:03:31;;;;;;;2.83;2.23;;;2.50;99.90;;;;;;5384401;26;22550;-77
2024/04/23 02:06:01;;;;;;;4.30;2.20;;;2.50;99.90;;;;;;5413889;26;20021;-76
2024/04/23 02:08:27;;;;;;;5.87;2.57;;;2.50;99.90;;;;;;5400318;26;20017;-75
2024/04/23 02:10:54;;;;;;;3.27;2.03;;;2.50;99.90;;;;;;5424334;26;20002;-76
2024/04/23 02:13:20;;;;;;;3.27;1.90;;;2.40;99.90;;;;;;5414316;26;20339;-75
2024/04/23 02:15:46;;;;;;;2.40;1.60;;;2.40;99.90;;;;;;5411567;26;20356;-76
2024/04/23 02:18:14;;;;;;;2.83;1.77;;;2.40;99.90;;;;;;5411961;26;20783;-76
2024/04/23 02:20:40;;;;;;;3.57;1.97;;;2.40;99.90;;;;;;5417678;26;20010;-76
2024/04/23 02:23:06;;;;;;;6.17;2.37;;;2.40;99.90;;;;;;5429500;26;21793;-77
2024/04/23 02:25:33;;;;;;;5.07;3.00;;;2.40;99.90;;;;;;5427460;26;20906;-76
2024/04/23 02:28:00;;;;;;;3.27;2.47;;;2.40;99.90;;;;;;5413196;26;19994;-76
2024/04/23 02:30:26;;;;;;;4.50;2.40;;;2.40;99.90;;;;;;5409499;26;20875;-76
2024/04/23 02:32:52;;;;;;;4.50;2.63;;;2.40;99.90;;;;;;5413525;26;21065;-76
2024/04/23 02:35:18;;;;;;;4.17;2.53;;;2.40;99.90;;;;;;5357871;26;20057;-75
2024/04/23 02:37:45;;;;;;;4.00;1.80;;;2.40;99.90;;;;;;5370578;26;20016;-76
2024/04/23 02:40:12;;;;;;;5.50;2.57;;;2.40;99.90;;;;;;5395706;26;20016;-76
2024/04/23 02:42:38;;;;;;;6.03;4.47;;;2.40;99.90;;;;;;5437361;25;20782;-76
2024/04/23 02:45:05;;;;;;;5.43;3.47;;;2.40;99.90;;;;;;5444502;25;20468;-76
2024/04/23 02:47:31;;;;;;;6.17;3.70;;;2.40;99.90;;;;;;5379441;26;20002;-76
2024/04/23 02:49:58;;;;;;;4.00;3.10;;;2.40;99.90;;;;;;5391842;26;20519;-75
2024/04/23 02:52:25;;;;;;;5.10;4.07;;;2.30;99.90;;;;;;5433717;26;20553;-75
2024/04/23 02:54:51;;;;;;;4.60;3.20;;;2.30;99.90;;;;;;5361043;26;20017;-75
2024/04/23 02:57:17;;;;;;;4.27;2.93;;;2.30;99.90;;;;;;5378856;26;20054;-75
2024/04/23 02:59:44;;;;;;;6.90;4.10;;;2.30;99.90;;;;;;5413303;26;20002;-76
2024/04/23 03:02:11;;;;;;;7.20;3.63;;;2.30;99.90;;;;;;5379238;26;20013;-75
2024/04/23 03:04:37;;;;;;;4.80;3.90;;;2.20;99.90;;;;;;5420077;26;20016;-77
2024/04/23 03:07:04;;;;;;;7.40;3.70;;;2.20;99.90;;;;;;5406802;26;20596;-76
2024/04/23 03:09:30;;;;;;;5.47;3.93;;;2.20;99.90;;;;;;5387228;26;20018;-76
2024/04/23 03:11:57;;;;;;;4.70;3.20;;;2.10;99.90;;;;;;5417486;26;20473;-74
2024/04/23 03:14:23;;;;;;;6.10;3.97;;;2.20;99.90;;;;;;5388604;26;20020;-75
2024/04/23 03:16:49;;;;;;;3.73;2.80;;;2.10;99.90;;;;;;5416989;26;22335;-75
2024/04/23 03:19:16;;;;;;;4.87;3.40;;;2.10;99.90;;;;;;5422389;26;20670;-75
2024/04/23 03:21:53;;;;;;;5.93;4.43;;;2.10;99.90;;;;;;5435713;26;20017;-76
2024/04/23 03:24:20;;;;;;;5.57;2.97;;;2.00;99.90;;;;;;5425335;26;22627;-75
2024/04/23 03:26:46;;;;;;;5.87;3.80;;;2.00;99.90;;;;;;5387211;26;20006;-75
2024/04/23 03:29:13;;;;;;;4.97;3.07;;;2.00;99.90;;;;;;5390201;26;20006;-75
2024/04/23 03:31:39;;;;;;;4.73;3.23;;;1.90;99.90;;;;;;5415834;26;20006;-75
2024/04/23 03:34:06;;;;;;;4.40;3.17;;;1.90;99.90;;;;;;5367999;26;20028;-75
2024/04/23 03:36:32;;;;;;;3.97;3.13;;;1.90;99.90;;;;;;5375763;26;20006;-75
2024/04/23 03:38:58;;;;;;;7.20;4.47;;;1.90;99.90;;;;;;5388355;26;20345;-75
2024/04/23 03:41:24;;;;;;;5.97;4.17;;;1.80;99.90;;;;;;5385120;26;20014;-75
2024/04/23 03:43:51;;;;;;;4.53;2.57;;;1.80;99.90;;;;;;5449557;25;20002;-76
2024/04/23 03:46:17;;;;;;;5.90;3.50;;;1.80;99.90;;;;;;5388608;26;19999;-76
2024/04/23 03:48:44;;;;;;;5.77;2.70;;;1.80;99.90;;;;;;5434233;26;20002;-77
2024/04/23 03:51:11;;;;;;;4.57;3.27;;;1.80;99.90;;;;;;5423997;26;20467;-74
2024/04/23 03:53:37;;;;;;;6.13;3.93;;;1.70;99.90;;;;;;5422593;26;20006;-74
2024/04/23 03:56:04;;;;;;;5.97;4.13;;;1.70;99.90;;;;;;5413641;26;20006;-75
2024/04/23 03:58:31;;;;;;;5.93;2.73;;;1.70;99.90;;;;;;5418352;26;21517;-75
2024/04/23 04:00:57;;;;;;;5.37;3.67;;;1.70;99.90;;;;;;5425517;26;20012;-75
2024/04/23 04:06:08;;;;;;;5.67;3.50;;;1.60;99.90;;;;;;5391012;26;20006;-76
2024/04/23 04:08:38;;;;;;;5.73;3.40;;;1.60;99.90;;;;;;5364998;26;20016;-75
2024/04/23 04:11:05;;;;;;;4.73;3.53;;;1.60;99.90;;;;;;5390867;26;20453;-76
2024/04/23 04:13:32;;;;;;;5.50;3.70;;;1.60;99.90;;;;;;5390930;26;22735;-74
2024/04/23 04:15:59;;;;;;;5.03;4.00;;;1.60;99.90;;;;;;5426053;26;20006;-75
2024/04/23 04:18:26;;;;;;;5.87;4.23;;;1.60;99.90;;;;;;5438706;26;19998;-76
2024/04/23 04:20:52;;;;;;;6.47;4.37;;;1.60;99.90;;;;;;5430712;26;21462;-75
2024/04/23 04:23:18;;;;;;;7.07;4.93;;;1.60;99.90;;;;;;5393045;26;20008;-74
2024/04/23 04:25:45;;;;;;;6.43;4.30;;;1.60;99.90;;;;;;5418823;26;23011;-75
2024/04/23 04:28:11;;;;;;;7.67;4.93;;;1.60;99.90;;;;;;5354333;26;20010;-77
2024/04/23 04:30:39;;;;;;;7.00;4.10;;;1.60;99.90;;;;;;5423609;26;20449;-74
2024/04/23 04:33:05;;;;;;;5.47;4.27;;;1.70;99.90;;;;;;5408375;26;20001;-75
2024/04/23 04:35:31;;;;;;;5.90;4.10;;;1.60;99.90;;;;;;5426193;26;20010;-75
2024/04/23 04:37:57;;;;;;;8.13;5.33;;;1.60;99.90;;;;;;5422067;26;20401;-75
2024/04/23 04:40:24;;;;;;;10.90;5.77;;;1.70;99.90;;;;;;5421859;26;20365;-75
2024/04/23 04:42:51;;;;;;;6.63;5.17;;;1.70;99.90;;;;;;5392656;26;20008;-75
2024/04/23 04:45:17;;;;;;;8.43;5.77;;;1.70;99.90;;;;;;5431259;26;20002;-77
2024/04/23 04:47:47;;;;;;;7.80;4.90;;;1.70;99.90;;;;;;5436636;26;19998;-74
2024/04/23 04:50:14;;;;;;;7.43;5.63;;;1.70;99.90;;;;;;5391726;26;20013;-75
2024/04/23 04:52:40;;;;;;;7.73;5.30;;;1.70;99.90;;;;;;5418941;26;20006;-76
2024/04/23 04:55:07;;;;;;;10.93;5.63;;;1.80;99.90;;;;;;5417772;26;20024;-75
2024/04/23 04:57:33;;;;;;;8.07;5.07;;;1.90;99.90;;;;;;5419757;26;20002;-75
2024/04/23 04:59:59;;;;;;;6.47;5.20;;;1.90;99.90;;;;;;5491411;25;20006;-74
2024/04/23 05:02:26;;;;;;;6.67;4.63;;;2.00;99.90;;;;;;5368677;26;20002;-76
2024/04/23 05:04:56;;;;;;;6.80;4.87;;;2.00;99.90;;;;;;5390932;26;21906;-75
2024/04/23 05:07:22;;;;;;;11.30;8.73;;;2.10;99.90;;;;;;5424538;26;20006;-75
2024/04/23 05:09:49;;;;;;;11.27;7.40;;;2.10;99.90;;;;;;5413505;26;20034;-73
2024/04/23 05:12:15;;;;;;;10.10;6.47;;;2.20;99.90;;;;;;5396277;26;20010;-76
2024/04/23 05:14:43;;;;;;;10.70;7.47;;;2.20;99.90;;;;;;5399208;26;20006;-76
2024/04/23 05:17:09;;;;;;;10.10;6.70;;;2.20;99.90;;;;;;5414616;26;20010;-73
2024/04/23 05:19:36;;;;;;;9.10;5.53;;;2.30;99.90;;;;;;5355147;26;20337;-75
2024/04/23 05:22:02;;;;;;;7.00;5.43;;;2.30;99.90;;;;;;5358975;26;20010;-73
2024/04/23 05:24:28;;;;;;;6.37;4.63;;;2.40;99.90;;;;;;5386029;26;20005;-73
2024/04/23 05:26:55;;;;;;;5.00;4.00;;;2.40;99.90;;;;;;5431897;26;20002;-73
2024/04/23 05:29:21;;;;;;;6.93;5.43;;;2.40;99.90;;;;;;5426087;26;20021;-76
2024/04/23 05:34:33;;;;;;;7.33;5.77;;;2.60;99.90;;;;;;5417868;26;20006;-76
2024/04/23 05:37:00;;;;;;;9.03;5.90;;;2.60;99.90;;;;;;5413928;26;19998;-75
2024/04/23 05:39:26;;;;;;;8.13;6.13;;;2.70;99.90;;;;;;5419465;26;21788;-75
2024/04/23 05:41:52;;;;;;;6.70;4.83;;;2.80;99.90;;;;;;5435742;26;20010;-76
2024/04/23 05:44:19;;;;;;;7.90;6.50;;;2.80;99.90;;;;;;5418690;26;20017;-74
2024/04/23 05:46:45;;;;;;;7.30;5.70;;;3.00;99.90;;;;;;5383873;26;20021;-74
2024/04/23 05:49:49;;;;;;;6.20;5.33;;;3.10;99.90;;;;;;5384947;26;20009;-76
2024/04/23 05:53:12;;;;;;;6.28;4.50;;;3.30;99.90;;;;;;5415440;26;19994;-74
2024/04/23 05:55:57;;;;;;;4.10;3.07;;;3.50;99.90;;;;;;5429500;26;21971;-75
2024/04/23 05:58:24;;;;;;;5.47;4.60;;;3.80;99.90;;;;;;5414639;26;20018;-76
2024/04/23 06:00:50;;;;;;;10.40;8.80;;;4.00;99.90;;;;;;5381809;26;20015;-75
2024/04/23 06:03:17;;;;;;;7.73;6.17;;;4.20;99.90;;;;;;5416633;26;20017;-75
2024/04/23 06:05:43;;;;;;;8.90;5.70;;;4.50;99.90;;;;;;5414883;26;20967;-76
2024/04/23 06:08:09;;;;;;;9.47;7.33;;;4.70;99.90;;;;;;5430479;26;19998;-75
2024/04/23 06:10:36;;;;;;;11.90;7.63;;;4.90;99.90;;;;;;5400027;26;20009;-74
2024/04/23 06:13:02;;;;;;;7.30;6.17;;;5.10;99.90;;;;;;5390484;26;20021;-77
2024/04/23 06:15:28;;;;;;;7.30;5.13;;;5.30;99.90;;;;;;5413930;26;21218;-77
2024/04/23 06:17:55;;;;;;;4.80;4.13;;;5.40;99.90;;;;;;5355324;26;20021;-76
2024/04/23 06:20:22;;;;;;;7.30;6.33;;;5.60;99.90;;;;;;5385059;26;19998;-75
2024/04/23 06:22:51;;;;;;;7.88;6.95;;;5.80;99.90;;;;;;5428653;26;20479;-76
2024/04/23 06:25:18;;;;;;;7.87;6.80;;;5.90;99.90;;;;;;5421886;26;20017;-75
2024/04/23 06:27:44;;;;;;;7.47;4.78;;;6.10;99.90;;;;;;5382212;26;20034;-76
2024/04/23 06:30:17;;;;;;;8.38;5.30;;;6.20;99.90;;;;;;5359887;26;20518;-75
2024/04/23 06:32:44;;;;;;;8.93;6.15;;;6.40;99.90;;;;;;5383921;26;20002;-77
2024/04/23 06:35:13;;;;;;;6.45;5.05;;;6.50;99.90;;;;;;5395729;26;20020;-77
2024/04/23 06:37:39;;;;;;;8.30;6.57;;;6.70;99.90;;;;;;5423474;26;20021;-76
2024/04/23 06:40:08;;;;;;;6.13;5.05;;;7.00;99.90;;;;;;5382672;26;20017;-77
2024/04/23 06:42:36;;;;;;;6.80;5.65;;;7.30;99.90;;;;;;5353369;26;20010;-76
2024/04/23 06:45:02;;;;;;;8.63;6.78;;;7.50;99.90;;;;;;5411642;26;20081;-75
2024/04/23 06:47:29;;;;;;;7.20;4.88;;;7.60;99.90;;;;;;5422111;26;20118;-75
2024/04/23 06:49:56;;;;;;;6.63;5.30;;;7.70;99.90;;;;;;5430826;26;19994;-75
2024/04/23 06:52:22;;;;;;;8.77;7.00;;;7.80;99.90;;;;;;5384136;26;20002;-77
2024/04/23 06:54:48;;;;;;;8.82;7.85;;;8.00;99.90;;;;;;5381468;26;20002;-75
2024/04/23 06:57:14;;;;;;;7.07;6.15;;;8.30;99.90;;;;;;5411972;26;20366;-76
2024/04/23 06:59:42;;;;;;;7.82;5.18;;;8.50;99.90;;;;;;5417199;26;19998;-76
2024/04/23 07:02:10;;;;;;;7.25;5.45;;;8.70;99.90;;;;;;5401020;26;19998;-76
2024/04/23 07:04:37;;;;;;;6.15;4.82;;;8.80;99.90;;;;;;5419047;26;20010;-76
2024/04/23 07:07:03;;;;;;;5.63;5.00;;;8.80;99.90;;;;;;5353940;26;19998;-77
2024/04/23 07:09:29;;;;;;;5.13;4.63;;;8.90;99.90;;;;;;5385995;26;21497;-76
2024/04/23 07:11:56;;;;;;;7.78;6.40;;;9.00;99.90;;;;;;5412201;26;20025;-75
2024/04/23 07:14:22;;;;;;;6.15;4.93;;;9.10;99.90;;;;;;5397623;26;20002;-75
2024/04/23 07:16:48;;;;;;;4.93;4.13;;;9.10;99.90;;;;;;5402111;26;19998;-77
2024/04/23 07:19:15;;;;;;;4.57;4.15;;;9.10;99.90;;;;;;5387890;26;20002;-76
2024/04/23 07:21:41;;;;;;;5.55;4.95;;;9.10;99.90;;;;;;5412696;26;20002;-77
2024/04/23 07:24:07;;;;;;;4.65;3.95;;;9.10;99.90;;;;;;5384434;26;20040;-76
2024/04/23 07:26:35;;;;;;;3.80;3.05;;;9.10;99.90;;;;;;5383122;26;19998;-75
2024/04/23 07:29:01;;;;;;;5.28;4.72;;;9.20;99.90;;;;;;5427485;26;20005;-77
2024/04/23 07:31:27;;;;;;;4.15;3.45;;;9.20;99.90;;;;;;5460761;25;20021;-76
2024/04/23 07:33:53;;;;;;;6.15;5.05;;;9.30;99.90;;;;;;5414838;26;20007;-75
2024/04/23 07:36:20;;;;;;;5.13;4.32;;;9.40;99.90;;;;;;5384115;26;19994;-78
2024/04/23 07:38:46;;;;;;;4.15;3.75;;;9.50;99.90;;;;;;5417794;26;20006;-77
2024/04/23 07:41:14;;;;;;;6.28;5.03;;;9.50;99.90;;;;;;5416520;26;20010;-77
2024/04/23 07:43:41;;;;;;;4.18;3.78;;;9.60;99.90;;;;;;5432844;26;20035;-77
2024/04/23 07:46:08;;;;;;;4.95;4.40;;;9.70;99.90;;;;;;5397925;26;20021;-76
2024/04/23 07:48:35;;;;;;;4.38;3.65;;;9.80;99.90;;;;;;5354333;26;19998;-75
2024/04/23 07:51:01;;;;;;;4.18;3.05;;;9.90;99.90;;;;;;5418971;26;20547;-75
2024/04/23 07:53:28;;;;;;;4.38;3.65;;;10.00;99.90;;;;;;5414331;26;20010;-75
2024/04/23 07:55:54;;;;;;;3.70;2.45;;;10.10;99.90;;;;;;5478239;25;20010;-76
2024/04/23 07:58:20;;;;;;;3.15;2.55;;;10.20;99.90;;;;;;5402288;26;20544;-77
2024/04/23 08:00:46;;;;;;;4.53;2.97;;;10.30;99.90;;;;;;5388519;26;20341;-77
2024/04/23 08:03:13;;;;;;;4.15;3.28;;;10.30;99.90;;;;;;5358235;26;19999;-76
2024/04/23 08:05:39;;;;;;;4.47;2.65;;;10.40;99.90;;;;;;5354364;26;20006;-77
2024/04/23 08:08:06;;;;;;;4.40;2.25;;;10.40;99.90;;;;;;5416743;26;20314;-76
2024/04/23 08:10:34;;;;;;;2.65;2.03;;;10.40;99.90;;;;;;5431768;26;20429;-77
2024/04/23 08:13:00;;;;;;;4.35;3.45;;;10.40;99.90;;;;;;5432447;26;20542;-76
2024/04/23 08:15:26;;;;;;;4.20;3.10;;;10.40;99.90;;;;;;5421822;26;22501;-76
2024/04/23 08:17:52;;;;;;;3.78;2.58;;;10.50;99.90;;;;;;5380135;26;20002;-76
2024/04/23 08:20:19;;;;;;;2.88;2.03;;;10.70;99.90;;;;;;5384143;26;20731;-76
2024/04/23 08:22:46;;;;;;;2.95;2.33;;;10.80;99.90;;;;;;5418051;26;20002;-76
2024/04/23 08:25:16;;;;;;;4.40;3.63;;;11.00;99.90;;;;;;5429572;26;20429;-76
2024/04/23 08:27:46;;;;;;;4.60;4.05;;;11.20;99.90;;;;;;5417426;26;20017;-76
2024/04/23 08:30:13;;;;;;;4.50;2.58;;;11.40;99.90;;;;;;5414059;26;20044;-77
2024/04/23 08:32:42;;;;;;;6.80;3.60;;;11.40;99.80;;;;;;5410560;26;20029;-76
2024/04/23 08:35:09;;;;;;;3.28;2.03;;;11.30;99.10;;;;;;5434626;25;20005;-75
2024/04/23 08:37:36;;;;;;;3.28;2.35;;;11.30;99.40;;;;;;5435715;26;20009;-77
2024/04/23 08:40:02;;;;;;;2.80;1.92;;;11.20;98.50;;;;;;5422372;26;20002;-77
2024/04/23 08:42:34;;;;;;;2.45;1.67;;;11.10;98.70;;;;;;5381487;26;20021;-78
2024/04/23 08:45:03;;;;;;;3.40;2.15;;;11.00;99.00;;;;;;5439438;25;20360;-77
2024/04/23 08:47:30;;;;;;;3.35;2.47;;;11.00;99.00;;;;;;5358890;26;20010;-77
2024/04/23 08:49:57;;;;;;;5.75;2.72;;;10.80;98.90;;;;;;5427632;26;20002;-75
2024/04/23 08:52:23;;;;;;;3.05;2.00;;;10.70;98.90;;;;;;5434885;26;21037;-76
2024/04/23 08:54:50;;;;;;;2.78;1.90;;;10.70;99.20;;;;;;5421357;26;20358;-77
2024/04/23 08:57:19;;;;;;;1.63;1.10;;;10.60;99.00;;;;;;5416059;26;20006;-77
2024/04/23 08:59:46;;;;;;;3.97;2.42;;;10.60;99.20;;;;;;5387511;26;20453;-75
2024/04/23 09:02:24;;;;;;;3.72;3.03;;;10.60;99.10;;;;;;5419346;26;20017;-76
2024/04/23 09:04:54;;;;;;;3.55;2.47;;;10.60;98.80;;;;;;5398327;26;19998;-77
2024/04/23 09:07:21;;;;;;;2.85;1.88;;;10.60;98.60;;;;;;5424548;26;20555;-77
2024/04/23 09:09:47;;;;;;;4.47;2.90;;;10.70;98.50;;;;;;5409507;26;20338;-76
2024/04/23 09:12:15;;;;;;;3.65;1.92;;;10.70;98.30;;;;;;5357894;26;20010;-76
2024/04/23 09:14:44;;;;;;;2.72;2.13;;;10.70;98.20;;;;;;5384773;26;20003;-77
2024/04/23 09:17:11;;;;;;;3.10;1.85;;;10.80;98.30;;;;;;5430857;26;20368;-75
2024/04/23 09:19:38;;;;;;;3.03;2.28;;;10.90;97.90;;;;;;5396823;26;19998;-76
2024/04/23 09:22:04;;;;;;;2.97;1.85;;;11.00;97.80;;;;;;5386808;26;20510;-76
2024/04/23 09:24:31;;;;;;;2.72;2.08;;;11.00;97.60;;;;;;5386674;26;21737;-76
2024/04/23 09:26:58;;;;;;;3.10;2.28;;;11.00;97.50;;;;;;5417530;26;19999;-77
2024/04/23 09:29:29;;;;;;;2.25;1.75;;;11.00;97.10;;;;;;5388477;26;20006;-76
2024/04/23 09:31:56;;;;;;;2.88;1.77;;;11.00;97.20;;;;;;5433132;26;20021;-77
2024/04/23 09:34:26;;;;;;;3.10;1.63;;;11.00;97.20;;;;;;5388758;26;20021;-76
2024/04/23 09:36:53;;;;;;;3.03;1.70;;;11.10;97.10;;;;;;5416227;26;20002;-75
2024/04/23 09:39:19;;;;;;;2.80;2.20;;;11.20;97.20;;;;;;5352466;26;19994;-76
2024/04/23 09:41:54;;;;;;;6.22;3.50;;;11.30;96.90;;;;;;5386443;26;19998;-77
2024/04/23 09:44:21;;;;;;;2.90;2.38;;;11.50;96.10;;;;;;5429655;26;20399;-76
2024/04/23 09:46:48;;;;;;;3.72;1.95;;;11.60;96.00;;;;;;5399833;26;20005;-76
2024/04/23 09:49:15;;;;;;;3.03;1.60;;;11.80;96.20;;;;;;5416080;26;20002;-75
2024/04/23 09:51:41;;;;;;;2.78;1.30;;;12.00;96.20;;;;;;5380338;26;20001;-77
2024/04/23 09:54:07;;;;;;;2.58;1.58;;;12.20;96.00;;;;;;5382495;26;20013;-78
2024/04/23 09:56:34;;;;;;;2.53;1.48;;;12.10;95.60;;;;;;5414836;26;20371;-77
2024/04/23 09:59:01;;;;;;;2.45;1.70;;;12.10;95.50;;;;;;5421677;26;20010;-75
2024/04/23 10:01:28;;;;;;;3.95;1.95;;;12.00;94.90;;;;;;5369935;26;21274;-76
2024/04/23 10:04:00;;;;;;;2.50;1.50;;;11.90;94.60;;;;;;5418209;26;20024;-77
2024/04/23 10:06:34;;;;;;;2.72;1.52;;;11.80;94.50;;;;;;5351996;26;20020;-75
2024/04/23 10:09:10;;;;;;;2.42;1.40;;;11.70;94.30;;;;;;5413105;26;20411;-76
2024/04/23 10:12:05;;;;;;;2.40;1.80;;;11.60;93.90;;;;;;5409014;26;20017;-77
2024/04/23 10:14:38;;;;;;;3.50;2.03;;;11.60;94.00;;;;;;5454152;25;20006;-75
2024/04/23 10:17:08;;;;;;;2.67;1.95;;;11.60;94.00;;;;;;5425424;26;20471;-76
2024/04/23 10:19:35;;;;;;;2.65;1.75;;;11.60;93.90;;;;;;5410409;26;20006;-78
2024/04/23 10:22:03;;;;;;;1.83;1.13;;;11.70;94.00;;;;;;5349029;26;20030;-76
2024/04/23 10:24:30;;;;;;;2.88;1.30;;;11.80;94.10;;;;;;5414487;26;20010;-78
2024/04/23 10:26:57;;;;;;;3.10;2.05;;;11.90;94.00;;;;;;5425580;26;20631;-77
2024/04/23 10:29:25;;;;;;;3.85;2.35;;;12.10;93.70;;;;;;5372592;26;20212;-77
2024/04/23 10:31:51;;;;;;;3.28;1.95;;;12.40;93.10;;;;;;5385206;26;22083;-78
2024/04/23 10:34:18;;;;;;;2.58;1.38;;;12.50;92.50;;;;;;5382999;26;20017;-76
2024/04/23 10:36:51;;;;;;;2.47;1.50;;;12.70;92.70;;;;;;5380684;26;20021;-77
2024/04/23 10:39:21;;;;;;;3.83;2.00;;;13.00;92.70;;;;;;5415969;26;20574;-76
2024/04/23 10:41:48;;;;;;;3.95;2.58;;;13.70;93.00;;;;;;5431081;26;20010;-77
2024/04/23 10:44:18;;;;;;;2.42;1.80;;;14.50;92.20;;;;;;5387334;26;20002;-75
2024/04/23 10:46:45;;;;;;;2.63;1.80;;;14.90;91.50;;;;;;5379998;26;20203;-76
2024/04/23 10:49:18;;;;;;;3.72;1.45;;;15.00;90.50;;;;;;5407475;26;21248;-77
2024/04/23 10:51:48;;;;;;;2.72;1.65;;;14.80;90.20;;;;;;5436232;26;20002;-76
2024/04/23 10:54:16;;;;;;;2.58;1.58;;;14.60;90.10;;;;;;5393113;26;19998;-79
2024/04/23 10:56:42;;;;;;;3.25;1.75;;;14.40;89.40;;;;;;5428616;26;20006;-75
2024/04/23 10:59:13;;;;;;;4.57;1.67;;;14.20;89.60;;;;;;5417434;26;20006;-75
2024/04/23 11:01:56;;;;;;;3.47;1.90;;;14.20;89.90;;;;;;5381279;26;20021;-75
2024/04/23 11:04:45;;;;;;;3.40;2.20;;;14.10;90.00;;;;;;5389459;26;20014;-75
2024/04/23 11:07:23;;;;;;;4.18;2.60;;;14.10;89.90;;;;;;5443227;26;20009;-77
2024/04/23 11:09:54;;;;;;;3.72;1.80;;;14.30;89.60;;;;;;5401165;26;20005;-77
2024/04/23 11:12:25;;;;;;;3.75;2.95;;;15.00;89.50;;;;;;5419561;26;20092;-75
2024/04/23 11:14:52;;;;;;;4.00;1.65;;;15.90;86.60;;;;;;5380270;26;20048;-77
2024/04/23 11:17:20;;;;;;;3.72;3.22;;;16.70;84.80;;;;;;5411060;26;19999;-76
2024/04/23 11:19:48;;;;;;;4.13;2.20;;;17.50;82.70;;;;;;5381618;26;20013;-77
2024/04/23 11:22:16;;;;;;;4.40;1.85;;;17.90;78.30;;;;;;5429581;26;20002;-75
2024/04/23 11:24:49;;;;;;;2.78;2.05;;;17.50;75.70;;;;;;5393941;26;20008;-77
2024/04/23 11:27:16;;;;;;;3.42;2.22;;;17.10;76.50;;;;;;5387782;26;20021;-78
2024/04/23 11:29:44;;;;;;;3.60;2.33;;;16.70;76.10;;;;;;5410143;26;19998;-78
2024/04/23 11:32:15;;;;;;;2.28;1.80;;;16.30;75.90;;;;;;5382657;26;20006;-76
2024/04/23 11:34:44;;;;;;;3.67;2.20;;;16.10;77.30;;;;;;5424948;26;20006;-77
2024/04/23 11:37:10;;;;;;;2.28;1.65;;;16.60;77.10;;;;;;5427694;26;20007;-76
2024/04/23 11:39:38;;;;;;;2.42;1.88;;;16.90;76.60;;;;;;5359233;26;20013;-76
2024/04/23 11:42:08;;;;;;;3.05;1.55;;;16.90;75.70;;;;;;5411488;26;20002;-75
2024/04/23 11:44:35;;;;;;;2.45;1.92;;;16.60;74.80;;;;;;5383553;26;20010;-74
2024/04/23 11:47:02;;;;;;;3.60;1.80;;;16.20;74.80;;;;;;5414421;26;20002;-78
2024/04/23 11:49:29;;;;;;;2.97;2.03;;;15.80;75.50;;;;;;5425504;26;20368;-75
2024/04/23 11:51:56;;;;;;;2.83;2.22;;;15.40;75.70;;;;;;5417240;26;22179;-75
2024/04/23 11:54:24;;;;;;;3.55;1.65;;;15.00;74.90;;;;;;5380344;26;20006;-76
2024/04/23 11:56:51;;;;;;;4.10;1.92;;;14.80;76.10;;;;;;5410220;26;20021;-77
2024/04/23 11:59:22;;;;;;;2.97;2.15;;;15.60;77.60;;;;;;5358761;26;20010;-77
2024/04/23 12:01:48;;;;;;;2.80;2.20;;;16.60;76.00;;;;;;5427325;26;20358;-76
2024/04/23 12:04:17;;;;;;;3.85;1.70;;;17.90;75.10;;;;;;5369866;26;20013;-77
2024/04/23 12:06:47;;;;;;;2.63;2.00;;;19.00;72.10;;;;;;5412131;26;20025;-75
2024/04/23 12:09:14;;;;;;;4.05;1.75;;;19.10;69.60;;;;;;5380718;26;20010;-75
2024/04/23 12:11:45;;;;;;;4.43;2.33;;;18.80;69.10;;;;;;5382312;26;20364;-76
2024/04/23 12:14:11;;;;;;;1.92;1.20;;;18.30;68.70;;;;;;5413174;26;20006;-74
2024/04/23 12:16:44;;;;;;;3.45;2.83;;;17.80;68.20;;;;;;5425806;26;20006;-76
2024/04/23 12:19:11;;;;;;;2.85;1.88;;;17.40;68.90;;;;;;5421791;26;20006;-76
2024/04/23 12:21:39;;;;;;;2.97;2.15;;;18.00;70.10;;;;;;5412279;26;20365;-77
2024/04/23 12:24:05;;;;;;;3.53;1.75;;;19.30;70.00;;;;;;5416740;26;20014;-76
2024/04/23 12:26:32;;;;;;;2.13;1.27;;;20.10;66.00;;;;;;5413004;26;20907;-75
2024/04/23 12:28:59;;;;;;;3.25;1.80;;;20.10;64.80;;;;;;5388015;26;20002;-77
2024/04/23 12:31:26;;;;;;;2.92;1.88;;;19.60;63.80;;;;;;5369227;26;20437;-77
2024/04/23 12:33:57;;;;;;;2.45;1.50;;;19.30;64.80;;;;;;5385278;26;20010;-76
2024/04/23 12:36:24;;;;;;;4.45;1.50;;;20.10;65.80;;;;;;5382109;26;20002;-77
2024/04/23 12:38:51;;;;;;;2.75;1.63;;;21.30;62.40;;;;;;5384831;26;20709;-78
2024/04/23 12:41:19;;;;;;;1.83;0.95;;;22.00;61.40;;;;;;5414744;26;20029;-76
2024/04/23 12:43:49;;;;;;;4.60;2.00;;;21.60;59.70;;;;;;5408489;26;20899;-75
2024/04/23 12:46:17;;;;;;;2.38;1.13;;;20.80;58.60;;;;;;5420405;26;20021;-76
2024/04/23 12:48:44;;;;;;;1.70;0.90;;;19.90;59.60;;;;;;5413786;26;20019;-77
2024/04/23 12:51:11;;;;;;;1.55;0.90;;;19.20;59.90;;;;;;5415476;26;20002;-77
2024/04/23 12:53:41;;;;;;;1.38;0.70;;;18.60;61.00;;;;;;5416975;26;19998;-76
2024/04/23 12:56:08;;;;;;;3.97;1.73;;;18.20;62.30;;;;;;5450366;26;20006;-76
2024/04/23 12:58:36;;;;;;;4.63;2.17;;;17.70;61.90;;;;;;5428362;26;20006;-76
2024/04/23 13:01:02;;;;;;;3.88;1.25;;;17.20;61.90;;;;;;5405128;26;20490;-75
2024/04/23 13:03:28;;;;;;;3.05;1.58;;;17.50;63.50;;;;;;5414760;26;20006;-76